Time;durP1;ratioP1;P1;durP2;ratioP2;P2;SDS_P1;SDS_P2;PMS_P1;PMS_P2;Temp;Humidity;BMP_temperature;BMP_pressure;BME280_temperature;BME280_humidity;BME280_pressure;Samples;Min_cycle;Max_cycle;Signal;HPM_P1;HPM_P2
2021/01/24 00:00:11;;;;;;;4.55;3.63;;;2.70;96.10;;;;;;5058639;28;20029;-69
2021/01/24 00:02:36;;;;;;;3.72;3.35;;;2.70;95.90;;;;;;5058439;28;20055;-69
2021/01/24 00:05:04;;;;;;;5.03;4.53;;;2.70;95.80;;;;;;5058452;28;20017;-70
2021/01/24 00:07:29;;;;;;;5.00;4.43;;;2.80;95.60;;;;;;5058452;28;20017;-69
2021/01/24 00:09:55;;;;;;;4.72;4.22;;;2.70;95.40;;;;;;5058317;28;20401;-69
2021/01/24 00:12:21;;;;;;;4.32;3.80;;;2.70;95.60;;;;;;5058298;28;20295;-69
2021/01/24 00:14:47;;;;;;;3.33;3.03;;;2.70;95.80;;;;;;5058135;28;20025;-69
2021/01/24 00:17:13;;;;;;;3.72;2.90;;;2.60;95.90;;;;;;5058208;28;20029;-69
2021/01/24 00:19:39;;;;;;;3.58;3.08;;;2.60;95.60;;;;;;5058168;28;20025;-69
2021/01/24 00:22:04;;;;;;;3.42;2.72;;;2.60;95.60;;;;;;5058112;28;20428;-69
2021/01/24 00:24:30;;;;;;;3.15;2.30;;;2.50;95.30;;;;;;5058025;28;20033;-69
2021/01/24 00:26:56;;;;;;;2.38;1.98;;;2.50;95.30;;;;;;5057944;28;20431;-69
2021/01/24 00:29:21;;;;;;;2.78;2.47;;;2.40;95.50;;;;;;5057368;28;20319;-69
2021/01/24 00:31:47;;;;;;;2.85;2.33;;;2.40;95.50;;;;;;5057907;28;20019;-69
2021/01/24 00:34:13;;;;;;;2.78;2.30;;;2.30;95.20;;;;;;5057794;28;20064;-69
2021/01/24 00:36:38;;;;;;;2.28;1.67;;;2.30;95.30;;;;;;5057924;28;20029;-69
2021/01/24 00:39:05;;;;;;;1.92;1.67;;;2.30;95.30;;;;;;5057800;28;20028;-69
2021/01/24 00:41:32;;;;;;;2.25;1.90;;;2.20;95.90;;;;;;5057968;28;20348;-69
2021/01/24 00:43:57;;;;;;;2.58;2.22;;;2.20;96.10;;;;;;5057574;28;20047;-69
2021/01/24 00:46:23;;;;;;;3.35;2.50;;;2.00;96.20;;;;;;5057614;28;20402;-69
2021/01/24 00:48:49;;;;;;;3.63;3.05;;;1.90;96.80;;;;;;5057621;28;20369;-69
2021/01/24 00:51:14;;;;;;;3.75;3.45;;;1.80;97.70;;;;;;5057809;28;20459;-69
2021/01/24 00:53:40;;;;;;;4.40;3.97;;;1.80;98.00;;;;;;5057739;28;20401;-69
2021/01/24 00:56:06;;;;;;;4.55;3.55;;;1.80;98.00;;;;;;5057340;28;20136;-69
2021/01/24 00:58:31;;;;;;;4.53;4.10;;;1.80;98.00;;;;;;5057449;28;20112;-69
2021/01/24 01:00:57;;;;;;;4.82;4.30;;;1.80;98.00;;;;;;5057372;28;20028;-69
2021/01/24 01:03:23;;;;;;;5.40;4.10;;;1.80;98.00;;;;;;5057304;28;20029;-69
2021/01/24 01:05:49;;;;;;;3.67;3.25;;;1.80;98.00;;;;;;5057241;28;20044;-69
2021/01/24 01:08:14;;;;;;;4.57;3.85;;;1.90;98.00;;;;;;5057482;28;20025;-69
2021/01/24 01:10:41;;;;;;;4.88;3.67;;;1.80;98.00;;;;;;5057235;28;20056;-69
2021/01/24 01:13:07;;;;;;;4.15;3.20;;;1.80;98.00;;;;;;5057151;28;20031;-69
2021/01/24 01:15:34;;;;;;;3.65;3.08;;;1.70;98.00;;;;;;5057030;28;20060;-69
2021/01/24 01:17:59;;;;;;;4.40;3.40;;;1.70;98.00;;;;;;5057363;28;20032;-69
2021/01/24 01:20:25;;;;;;;3.15;2.78;;;1.60;98.00;;;;;;5057346;28;20033;-69
2021/01/24 01:22:51;;;;;;;3.17;2.88;;;1.50;98.00;;;;;;5056967;28;20397;-69
2021/01/24 01:25:18;;;;;;;3.92;2.88;;;1.40;98.00;;;;;;5056786;28;20132;-69
2021/01/24 01:27:44;;;;;;;3.65;3.10;;;1.40;98.00;;;;;;5056971;28;20348;-69
2021/01/24 01:30:10;;;;;;;3.38;2.67;;;1.40;98.00;;;;;;5056909;28;20024;-69
2021/01/24 01:32:36;;;;;;;3.15;2.65;;;1.40;98.00;;;;;;5056890;28;20021;-69
2021/01/24 01:35:04;;;;;;;3.10;2.80;;;1.40;98.00;;;;;;5056796;28;20040;-69
2021/01/24 01:37:30;;;;;;;2.60;2.40;;;1.50;98.00;;;;;;5056793;28;20028;-69
2021/01/24 01:39:56;;;;;;;3.38;2.85;;;1.50;98.00;;;;;;5056053;28;20104;-69
2021/01/24 01:42:21;;;;;;;3.47;3.13;;;1.50;98.00;;;;;;5056649;28;20060;-69
2021/01/24 01:44:48;;;;;;;3.20;2.60;;;1.50;98.00;;;;;;5055574;28;20075;-69
2021/01/24 01:47:20;;;;;;;2.97;2.60;;;1.60;98.00;;;;;;5056922;28;20024;-69
2021/01/24 01:49:46;;;;;;;3.47;2.60;;;1.60;98.00;;;;;;5056895;28;20468;-69
2021/01/24 01:52:12;;;;;;;3.28;2.70;;;1.60;98.00;;;;;;5056663;28;20092;-69
2021/01/24 01:54:41;;;;;;;2.88;2.60;;;1.60;98.00;;;;;;5056558;28;20037;-69
2021/01/24 01:57:07;;;;;;;2.92;2.50;;;1.60;98.00;;;;;;5056521;28;20033;-69
2021/01/24 01:59:33;;;;;;;3.20;2.90;;;1.60;98.00;;;;;;5056550;28;20383;-69
2021/01/24 02:02:44;;;;;;;3.05;2.58;;;1.50;98.00;;;;;;5056583;28;20151;-69
2021/01/24 02:05:28;;;;;;;3.35;2.88;;;1.50;98.00;;;;;;5054597;28;20036;-69
2021/01/24 02:08:02;;;;;;;3.92;2.97;;;1.50;98.00;;;;;;5054640;28;20036;-69
2021/01/24 02:10:45;;;;;;;2.78;2.38;;;1.60;98.00;;;;;;5055929;28;20295;-69
2021/01/24 02:13:17;;;;;;;3.05;2.53;;;1.70;98.00;;;;;;5056393;28;20033;-69
2021/01/24 02:15:45;;;;;;;2.30;1.95;;;1.80;98.00;;;;;;5056333;28;20032;-69
2021/01/24 02:18:12;;;;;;;3.47;2.53;;;1.90;98.00;;;;;;5056778;28;20098;-69
2021/01/24 02:20:59;;;;;;;2.70;2.13;;;1.90;98.00;;;;;;5056359;28;20025;-69
2021/01/24 02:23:27;;;;;;;2.63;2.03;;;1.90;98.00;;;;;;5056215;28;20064;-69
2021/01/24 02:26:26;;;;;;;2.13;1.92;;;2.00;98.00;;;;;;5056722;28;20424;-69
2021/01/24 02:29:18;;;;;;;2.28;1.80;;;1.90;97.90;;;;;;5055997;28;20353;-69
2021/01/24 02:31:46;;;;;;;3.55;2.90;;;1.90;97.40;;;;;;5056584;28;20310;-69
2021/01/24 02:34:15;;;;;;;3.70;3.25;;;1.80;97.40;;;;;;5056191;28;20036;-69
2021/01/24 02:36:42;;;;;;;3.78;2.97;;;1.70;97.10;;;;;;5056443;28;20025;-69
2021/01/24 02:39:09;;;;;;;4.57;3.33;;;1.70;97.20;;;;;;5056418;28;20421;-69
2021/01/24 02:41:35;;;;;;;3.67;2.80;;;1.70;97.50;;;;;;5056150;28;20044;-69
2021/01/24 02:44:01;;;;;;;2.92;2.30;;;1.60;97.10;;;;;;5056028;28;20029;-69
2021/01/24 02:46:30;;;;;;;3.28;2.90;;;1.60;97.30;;;;;;5056070;28;20056;-69
2021/01/24 02:48:55;;;;;;;2.00;1.70;;;1.60;97.70;;;;;;5056142;28;20017;-69
2021/01/24 02:51:23;;;;;;;2.10;1.75;;;1.50;97.30;;;;;;5056881;28;20286;-69
2021/01/24 02:53:49;;;;;;;1.83;1.40;;;1.40;97.30;;;;;;5060008;28;20029;-69
2021/01/24 02:56:21;;;;;;;1.40;1.00;;;1.50;96.80;;;;;;5059614;28;20409;-69
2021/01/24 02:58:46;;;;;;;1.80;1.15;;;1.60;96.30;;;;;;5059967;28;20033;-69
2021/01/24 03:01:13;;;;;;;1.27;0.90;;;1.70;95.40;;;;;;5059694;28;20032;-69
2021/01/24 03:03:39;;;;;;;1.38;0.95;;;1.70;95.10;;;;;;5059605;28;20128;-69
2021/01/24 03:06:05;;;;;;;1.90;0.80;;;1.80;94.50;;;;;;5059543;28;20092;-69
2021/01/24 03:08:31;;;;;;;1.67;1.20;;;1.80;94.10;;;;;;5059467;28;20420;-69
2021/01/24 03:10:57;;;;;;;1.50;1.08;;;1.90;93.60;;;;;;5059574;28;20021;-69
2021/01/24 03:13:40;;;;;;;2.00;1.00;;;1.90;93.50;;;;;;5059416;28;20085;-69
2021/01/24 03:16:07;;;;;;;1.45;0.85;;;1.90;93.10;;;;;;5059293;28;20062;-69
2021/01/24 03:18:36;;;;;;;1.65;1.10;;;1.90;93.70;;;;;;5059439;28;20025;-69
2021/01/24 03:21:04;;;;;;;1.88;1.13;;;1.90;94.10;;;;;;5059280;28;20053;-69
2021/01/24 03:23:30;;;;;;;1.65;1.00;;;1.80;94.60;;;;;;5059208;28;20040;-69
2021/01/24 03:25:57;;;;;;;1.67;1.10;;;1.80;94.30;;;;;;5059191;28;20029;-69
2021/01/24 03:28:23;;;;;;;3.65;1.38;;;1.70;95.10;;;;;;5058978;28;20057;-69
2021/01/24 03:30:49;;;;;;;1.45;1.10;;;1.70;95.10;;;;;;5059123;28;20040;-69
2021/01/24 03:33:15;;;;;;;1.80;1.55;;;1.60;95.60;;;;;;5059215;28;20029;-69
2021/01/24 03:35:41;;;;;;;1.92;1.20;;;1.50;95.60;;;;;;5059162;28;20108;-69
2021/01/24 03:38:07;;;;;;;3.38;1.98;;;1.40;96.10;;;;;;5058896;28;20137;-69
2021/01/24 03:40:32;;;;;;;3.88;1.23;;;1.40;96.90;;;;;;5058895;28;20029;-69
2021/01/24 03:42:58;;;;;;;3.28;2.03;;;1.40;96.90;;;;;;5058839;28;20029;-69
2021/01/24 03:45:25;;;;;;;2.70;2.10;;;1.40;97.40;;;;;;5058717;28;20405;-69
2021/01/24 03:47:51;;;;;;;3.15;2.20;;;1.40;97.00;;;;;;5059121;28;20156;-69
2021/01/24 03:50:16;;;;;;;2.40;2.05;;;1.40;96.60;;;;;;5058638;28;20053;-69
2021/01/24 03:52:42;;;;;;;4.07;2.10;;;1.40;96.40;;;;;;5058696;28;20079;-69
2021/01/24 03:55:09;;;;;;;2.35;1.85;;;1.30;96.80;;;;;;5058439;28;20360;-69
2021/01/24 03:57:35;;;;;;;2.42;1.63;;;1.30;97.20;;;;;;5058736;28;20029;-69
2021/01/24 04:00:01;;;;;;;2.15;1.30;;;1.30;97.00;;;;;;5058540;28;20095;-69
2021/01/24 04:02:28;;;;;;;9.38;2.40;;;1.20;96.50;;;;;;5058313;28;20364;-69
2021/01/24 04:04:55;;;;;;;15.25;2.90;;;1.20;96.50;;;;;;5057743;28;20016;-69
2021/01/24 04:07:20;;;;;;;12.32;2.63;;;1.20;96.50;;;;;;5058458;28;20025;-69
2021/01/24 04:09:46;;;;;;;10.93;2.75;;;1.20;96.70;;;;;;5058307;28;20111;-69
2021/01/24 04:12:11;;;;;;;5.55;1.70;;;1.10;97.00;;;;;;5058311;28;20074;-69
2021/01/24 04:14:37;;;;;;;4.03;1.42;;;1.10;97.10;;;;;;5058217;28;20025;-69
2021/01/24 04:17:03;;;;;;;1.75;1.17;;;1.20;97.00;;;;;;5058260;28;20417;-69
2021/01/24 04:19:29;;;;;;;1.33;0.90;;;1.10;97.50;;;;;;5058472;28;20024;-69
2021/01/24 04:21:54;;;;;;;1.85;0.63;;;1.10;97.40;;;;;;5058245;28;20032;-69
2021/01/24 04:24:20;;;;;;;1.00;0.60;;;1.20;98.00;;;;;;5058068;28;20028;-69
2021/01/24 04:26:46;;;;;;;1.45;0.77;;;1.30;98.00;;;;;;5058033;28;20025;-69
2021/01/24 04:29:11;;;;;;;1.08;0.60;;;1.40;97.60;;;;;;5057793;28;20045;-69
2021/01/24 04:31:37;;;;;;;1.13;0.80;;;1.60;97.20;;;;;;5058057;28;20107;-69
2021/01/24 04:34:03;;;;;;;1.05;0.60;;;1.60;96.50;;;;;;5057824;28;20069;-69
2021/01/24 04:36:28;;;;;;;0.95;0.60;;;1.80;95.90;;;;;;5057828;28;20064;-69
2021/01/24 04:38:54;;;;;;;1.23;0.82;;;1.90;95.20;;;;;;5058030;28;20025;-69
2021/01/24 04:41:20;;;;;;;1.52;1.08;;;1.90;94.30;;;;;;5057795;28;20029;-69
2021/01/24 04:43:46;;;;;;;1.08;0.77;;;2.00;93.50;;;;;;5056626;28;20028;-69
2021/01/24 04:46:13;;;;;;;0.82;0.50;;;2.10;92.70;;;;;;5057876;28;20029;-69
2021/01/24 04:48:39;;;;;;;1.08;0.70;;;2.20;91.70;;;;;;5056582;28;20028;-69
2021/01/24 04:51:05;;;;;;;1.73;0.82;;;2.50;90.30;;;;;;5057550;28;20020;-69
2021/01/24 04:53:32;;;;;;;1.27;0.60;;;2.60;88.90;;;;;;5057592;28;20028;-69
2021/01/24 04:56:00;;;;;;;1.15;0.60;;;2.70;88.30;;;;;;5057938;28;20057;-69
2021/01/24 04:58:27;;;;;;;1.20;0.60;;;2.70;87.60;;;;;;5057464;28;20029;-69
2021/01/24 05:00:53;;;;;;;1.27;0.60;;;2.70;87.10;;;;;;5057401;28;20033;-69
2021/01/24 05:03:18;;;;;;;0.77;0.47;;;2.70;86.10;;;;;;5057558;28;20031;-69
2021/01/24 05:05:44;;;;;;;0.90;0.60;;;2.80;85.90;;;;;;5057355;28;20112;-69
2021/01/24 05:08:11;;;;;;;2.90;0.73;;;2.80;85.60;;;;;;5057801;28;20017;-69
2021/01/24 05:10:37;;;;;;;3.35;0.60;;;2.60;88.50;;;;;;5057326;28;20108;-69
2021/01/24 05:13:03;;;;;;;0.68;0.47;;;2.40;89.70;;;;;;5057232;28;20107;-69
2021/01/24 05:15:29;;;;;;;0.95;0.55;;;2.20;90.30;;;;;;5057011;28;20055;-69
2021/01/24 05:17:59;;;;;;;1.25;0.57;;;2.00;91.00;;;;;;5057124;28;20408;-69
2021/01/24 05:20:33;;;;;;;0.77;0.50;;;1.90;91.70;;;;;;5057064;28;20033;-69
2021/01/24 05:23:04;;;;;;;1.45;0.50;;;1.80;92.20;;;;;;5057229;28;20071;-69
2021/01/24 05:25:32;;;;;;;0.98;0.57;;;1.70;92.50;;;;;;5055758;28;20035;-69
2021/01/24 05:28:15;;;;;;;2.03;0.70;;;1.60;92.60;;;;;;5056869;28;20052;-69
2021/01/24 05:30:40;;;;;;;1.85;1.27;;;1.50;93.10;;;;;;5056924;28;20329;-69
2021/01/24 05:33:06;;;;;;;2.08;1.20;;;1.40;92.60;;;;;;5056856;28;20031;-69
2021/01/24 05:35:35;;;;;;;4.38;1.40;;;1.50;92.50;;;;;;5056721;28;20028;-69
2021/01/24 05:38:00;;;;;;;1.50;1.00;;;1.40;92.20;;;;;;5057108;28;20040;-69
2021/01/24 05:40:26;;;;;;;2.35;1.38;;;1.40;92.40;;;;;;5056741;28;20405;-69
2021/01/24 05:42:52;;;;;;;3.30;1.27;;;1.40;92.20;;;;;;5056635;28;20109;-69
2021/01/24 05:45:19;;;;;;;2.30;1.40;;;1.30;92.70;;;;;;5056842;28;20028;-69
2021/01/24 05:47:46;;;;;;;1.85;1.38;;;1.30;92.60;;;;;;5056851;28;20025;-69
2021/01/24 05:50:16;;;;;;;2.88;1.88;;;1.40;92.30;;;;;;5056618;28;20040;-69
2021/01/24 05:52:47;;;;;;;1.63;0.90;;;1.50;92.10;;;;;;5056908;28;20021;-69
2021/01/24 05:55:30;;;;;;;2.20;1.60;;;1.60;91.50;;;;;;5056445;28;20032;-69
2021/01/24 05:57:56;;;;;;;1.75;1.10;;;1.70;91.10;;;;;;5056530;28;20029;-69
2021/01/24 06:00:22;;;;;;;1.88;1.20;;;1.80;90.50;;;;;;5056681;28;20025;-69
2021/01/24 06:02:49;;;;;;;2.15;1.55;;;1.80;90.50;;;;;;5056477;28;20024;-69
2021/01/24 06:05:14;;;;;;;3.00;1.80;;;1.80;90.60;;;;;;5056383;28;20021;-69
2021/01/24 06:07:40;;;;;;;3.13;1.95;;;1.70;90.70;;;;;;5056659;28;20055;-69
2021/01/24 06:10:06;;;;;;;2.33;1.45;;;1.60;90.90;;;;;;5056492;28;20028;-69
2021/01/24 06:12:35;;;;;;;2.28;1.30;;;1.60;91.00;;;;;;5056540;28;20014;-69
2021/01/24 06:15:04;;;;;;;1.83;1.30;;;1.50;91.30;;;;;;5056328;28;20025;-69
2021/01/24 06:17:41;;;;;;;1.95;1.30;;;1.40;91.80;;;;;;5056708;28;20071;-69
2021/01/24 06:20:08;;;;;;;3.53;1.40;;;1.30;92.30;;;;;;5056524;28;20043;-69
2021/01/24 06:22:39;;;;;;;1.95;1.40;;;1.20;93.10;;;;;;5056204;28;20017;-69
2021/01/24 06:25:22;;;;;;;1.95;1.15;;;1.20;93.70;;;;;;5056359;28;20047;-69
2021/01/24 06:27:58;;;;;;;1.65;0.93;;;1.20;94.60;;;;;;5059286;28;20453;-69
2021/01/24 06:30:26;;;;;;;1.40;1.00;;;1.20;95.00;;;;;;5060287;28;20052;-69
2021/01/24 06:32:52;;;;;;;2.53;1.35;;;1.20;94.30;;;;;;5060209;28;20075;-69
2021/01/24 06:35:23;;;;;;;1.83;1.00;;;1.10;93.60;;;;;;5060192;28;20352;-69
2021/01/24 06:37:51;;;;;;;2.35;1.20;;;1.00;93.70;;;;;;5060417;28;20044;-69
2021/01/24 06:40:25;;;;;;;1.40;0.70;;;1.00;94.40;;;;;;5060054;28;20033;-69
2021/01/24 06:43:02;;;;;;;1.05;0.70;;;0.90;94.60;;;;;;5059968;28;20032;-69
2021/01/24 06:45:29;;;;;;;0.90;0.60;;;1.00;95.30;;;;;;5059981;28;20021;-69
2021/01/24 06:47:56;;;;;;;1.50;1.00;;;1.00;94.70;;;;;;5060196;28;20017;-69
2021/01/24 06:50:45;;;;;;;1.90;1.27;;;1.00;95.10;;;;;;5059886;28;20025;-69
2021/01/24 06:53:26;;;;;;;1.73;1.25;;;1.20;93.70;;;;;;5059976;28;20432;-69
2021/01/24 06:56:06;;;;;;;2.58;1.75;;;1.40;92.50;;;;;;5059698;28;20060;-69
2021/01/24 06:58:34;;;;;;;2.10;1.27;;;1.50;91.80;;;;;;5059798;28;20029;-69
2021/01/24 07:01:25;;;;;;;1.65;1.13;;;1.60;90.90;;;;;;5059713;28;20036;-69
2021/01/24 07:04:23;;;;;;;1.40;0.82;;;1.70;90.40;;;;;;5059683;28;20380;-69
2021/01/24 07:06:56;;;;;;;3.13;1.42;;;1.90;89.20;;;;;;5059789;28;20021;-69
2021/01/24 07:09:25;;;;;;;2.05;0.80;;;1.90;88.90;;;;;;5059661;28;20021;-69
2021/01/24 07:11:56;;;;;;;1.42;0.90;;;2.00;88.20;;;;;;5059571;28;20024;-69
2021/01/24 07:14:39;;;;;;;2.80;1.30;;;2.00;87.60;;;;;;5059715;28;20022;-69
2021/01/24 07:17:16;;;;;;;1.40;0.73;;;2.00;87.60;;;;;;5059438;28;20032;-69
2021/01/24 07:19:49;;;;;;;1.23;0.95;;;2.10;87.10;;;;;;5059303;28;20025;-69
2021/01/24 07:22:20;;;;;;;1.90;1.30;;;2.10;87.40;;;;;;5059332;28;20033;-69
2021/01/24 07:24:48;;;;;;;1.25;0.90;;;2.10;87.50;;;;;;5059142;28;20298;-69
2021/01/24 07:27:16;;;;;;;1.30;0.95;;;2.10;87.90;;;;;;5058163;28;20408;-69
2021/01/24 07:29:42;;;;;;;1.42;1.23;;;2.00;89.00;;;;;;5059025;28;20045;-69
2021/01/24 07:32:13;;;;;;;1.75;1.10;;;2.00;89.20;;;;;;5058062;28;20029;-69
2021/01/24 07:34:42;;;;;;;1.92;1.25;;;1.90;89.00;;;;;;5059000;28;20032;-69
2021/01/24 07:37:08;;;;;;;1.90;1.10;;;1.90;88.40;;;;;;5059038;28;20329;-69
2021/01/24 07:39:35;;;;;;;2.42;1.63;;;1.90;88.60;;;;;;5057821;28;20020;-69
2021/01/24 07:42:02;;;;;;;2.03;1.27;;;2.00;88.40;;;;;;5059135;28;20421;-69
2021/01/24 07:44:28;;;;;;;2.40;1.70;;;2.00;88.00;;;;;;5058749;28;20037;-69
2021/01/24 07:46:54;;;;;;;2.00;1.60;;;2.10;88.20;;;;;;5058841;28;20050;-69
2021/01/24 07:49:20;;;;;;;3.35;2.20;;;2.10;88.00;;;;;;5057725;28;20017;-69
2021/01/24 07:51:47;;;;;;;3.92;3.03;;;2.10;88.30;;;;;;5058760;28;20313;-69
2021/01/24 07:54:15;;;;;;;3.40;2.53;;;2.10;89.00;;;;;;5058593;28;20021;-69
2021/01/24 07:56:42;;;;;;;4.20;2.47;;;2.10;88.70;;;;;;5058891;28;20087;-69
2021/01/24 07:59:08;;;;;;;2.13;1.67;;;2.10;88.40;;;;;;5058886;28;20105;-69
2021/01/24 08:01:38;;;;;;;2.97;1.80;;;2.20;86.80;;;;;;5058512;28;20112;-69
2021/01/24 08:04:04;;;;;;;2.97;1.67;;;2.20;87.50;;;;;;5058571;28;20075;-69
2021/01/24 08:06:35;;;;;;;2.40;1.63;;;2.20;87.80;;;;;;5058436;28;20100;-69
2021/01/24 08:09:02;;;;;;;2.20;1.38;;;2.30;86.20;;;;;;5058692;28;20027;-69
2021/01/24 08:11:29;;;;;;;1.55;1.05;;;2.40;85.50;;;;;;5057287;28;20025;-69
2021/01/24 08:13:55;;;;;;;2.25;1.42;;;2.60;85.10;;;;;;5058351;28;20100;-69
2021/01/24 08:16:24;;;;;;;2.47;1.27;;;2.60;85.00;;;;;;5058192;28;20306;-69
2021/01/24 08:18:52;;;;;;;1.90;1.40;;;2.70;85.50;;;;;;5058239;28;20071;-69
2021/01/24 08:21:19;;;;;;;3.15;2.20;;;2.70;85.60;;;;;;5058236;28;20083;-69
2021/01/24 08:23:45;;;;;;;3.92;2.17;;;2.70;85.80;;;;;;5056980;28;20021;-69
2021/01/24 08:26:12;;;;;;;1.90;1.15;;;2.70;86.10;;;;;;5057928;28;20053;-69
2021/01/24 08:28:38;;;;;;;1.63;1.02;;;2.70;85.00;;;;;;5057810;28;20345;-69
2021/01/24 08:31:04;;;;;;;1.85;1.17;;;2.80;85.30;;;;;;5057940;28;20036;-69
2021/01/24 08:33:31;;;;;;;3.00;1.77;;;2.90;84.80;;;;;;5058065;28;20029;-69
2021/01/24 08:36:18;;;;;;;3.53;1.60;;;2.90;84.00;;;;;;5057994;28;20021;-69
2021/01/24 08:38:45;;;;;;;2.95;1.20;;;3.00;84.30;;;;;;5058159;28;20095;-69
2021/01/24 08:41:12;;;;;;;3.30;1.50;;;3.00;85.10;;;;;;5057899;28;20025;-69
2021/01/24 08:43:39;;;;;;;1.73;1.10;;;3.10;85.20;;;;;;5057669;28;20417;-69
2021/01/24 08:46:36;;;;;;;1.55;1.05;;;3.20;84.70;;;;;;5057742;28;20484;-69
2021/01/24 08:49:11;;;;;;;2.00;1.00;;;3.30;84.40;;;;;;5056768;28;20112;-69
2021/01/24 08:51:55;;;;;;;1.90;1.13;;;3.30;83.30;;;;;;5057764;28;20028;-69
2021/01/24 08:54:34;;;;;;;2.38;1.50;;;3.40;82.80;;;;;;5057626;28;20021;-69
2021/01/24 08:57:16;;;;;;;2.70;1.30;;;3.50;82.00;;;;;;5057503;28;20056;-69
2021/01/24 08:59:52;;;;;;;1.88;1.30;;;3.40;82.00;;;;;;5056385;28;20031;-69
2021/01/24 09:02:32;;;;;;;2.28;1.48;;;3.30;81.80;;;;;;5057397;28;20036;-69
2021/01/24 09:05:09;;;;;;;1.40;0.98;;;3.40;82.30;;;;;;5057237;28;20417;-69
2021/01/24 09:07:45;;;;;;;1.98;1.27;;;3.40;82.80;;;;;;5057619;28;20302;-69
2021/01/24 09:10:20;;;;;;;1.73;0.90;;;3.50;82.30;;;;;;5057577;28;20079;-69
2021/01/24 09:12:54;;;;;;;2.20;1.23;;;3.50;81.70;;;;;;5057521;28;20021;-69
2021/01/24 09:15:22;;;;;;;2.60;1.50;;;3.60;82.90;;;;;;5057170;28;20021;-69
2021/01/24 09:17:49;;;;;;;2.20;1.52;;;3.70;82.40;;;;;;5057112;28;20021;-69
2021/01/24 09:20:16;;;;;;;2.28;1.60;;;3.50;82.90;;;;;;5057272;28;20059;-69
2021/01/24 09:22:42;;;;;;;2.38;1.60;;;3.40;82.80;;;;;;5057403;28;20028;-69
2021/01/24 09:25:10;;;;;;;3.15;2.10;;;3.40;82.90;;;;;;5057114;28;20021;-68
2021/01/24 09:27:36;;;;;;;4.75;2.63;;;3.40;81.60;;;;;;5056976;28;20048;-69
2021/01/24 09:30:07;;;;;;;3.47;2.30;;;3.20;83.20;;;;;;5057266;28;20108;-69
2021/01/24 09:32:33;;;;;;;2.25;1.80;;;2.90;83.50;;;;;;5056830;28;20025;-69
2021/01/24 09:35:00;;;;;;;3.72;2.15;;;3.00;83.40;;;;;;5056753;28;20031;-68
2021/01/24 09:37:26;;;;;;;3.55;2.42;;;3.00;82.60;;;;;;5055834;28;20113;-68
2021/01/24 09:39:52;;;;;;;2.97;1.90;;;3.00;82.70;;;;;;5056786;28;20481;-69
2021/01/24 09:42:17;;;;;;;3.88;1.77;;;3.00;82.90;;;;;;5056775;28;20064;-69
2021/01/24 09:44:44;;;;;;;1.83;1.40;;;3.10;83.30;;;;;;5056793;28;20060;-69
2021/01/24 09:47:10;;;;;;;1.92;1.40;;;3.10;81.30;;;;;;5055691;28;20052;-69
2021/01/24 09:49:36;;;;;;;1.73;1.20;;;3.20;80.90;;;;;;5056676;28;20429;-69
2021/01/24 09:52:02;;;;;;;1.63;1.05;;;3.30;79.90;;;;;;5056643;28;20364;-69
2021/01/24 09:54:28;;;;;;;2.13;1.30;;;3.50;78.10;;;;;;5056640;28;20091;-69
2021/01/24 09:56:54;;;;;;;1.77;1.00;;;3.50;79.90;;;;;;5055564;28;20076;-69
2021/01/24 09:59:19;;;;;;;2.25;1.15;;;3.50;80.00;;;;;;5055473;28;20037;-69
2021/01/24 10:01:45;;;;;;;2.45;1.45;;;3.60;78.50;;;;;;5055800;28;20052;-69
2021/01/24 10:04:11;;;;;;;2.20;1.20;;;3.60;79.20;;;;;;5056365;28;20025;-69
2021/01/24 10:06:37;;;;;;;2.58;1.58;;;3.60;79.80;;;;;;5056711;28;20017;-69
2021/01/24 10:09:04;;;;;;;1.98;1.40;;;3.50;79.80;;;;;;5053448;28;20113;-69
2021/01/24 10:11:30;;;;;;;2.22;1.70;;;3.40;80.50;;;;;;5048192;28;20024;-69
2021/01/24 10:13:56;;;;;;;2.25;1.75;;;3.30;81.00;;;;;;5036539;28;20025;-69
2021/01/24 10:16:23;;;;;;;3.55;1.55;;;3.30;80.90;;;;;;5036487;28;20033;-69
2021/01/24 10:18:49;;;;;;;2.35;1.52;;;3.40;80.80;;;;;;5036364;28;20036;-69
2021/01/24 10:21:14;;;;;;;2.15;1.40;;;3.40;79.40;;;;;;5036418;28;20361;-69
2021/01/24 10:23:41;;;;;;;1.88;1.23;;;3.50;79.20;;;;;;5035310;28;20032;-69
2021/01/24 10:26:07;;;;;;;2.17;1.35;;;3.60;78.40;;;;;;5036312;28;20321;-69
2021/01/24 10:28:34;;;;;;;2.47;1.55;;;3.60;78.40;;;;;;5035168;28;20061;-69
2021/01/24 10:31:00;;;;;;;4.20;1.45;;;3.70;78.40;;;;;;5036346;28;20406;-69
2021/01/24 10:33:26;;;;;;;2.08;1.17;;;3.80;78.40;;;;;;5036370;28;20022;-69
2021/01/24 10:35:51;;;;;;;1.52;1.02;;;3.90;77.60;;;;;;5036387;28;20029;-69
2021/01/24 10:38:20;;;;;;;1.77;1.10;;;4.00;77.20;;;;;;5035364;28;20029;-69
2021/01/24 10:40:46;;;;;;;2.20;1.20;;;4.20;76.60;;;;;;5036292;28;20036;-69
2021/01/24 10:43:12;;;;;;;1.50;1.08;;;4.30;75.40;;;;;;5036251;28;20034;-69
2021/01/24 10:45:38;;;;;;;1.40;0.63;;;4.40;75.90;;;;;;5035098;28;20040;-69
2021/01/24 10:48:05;;;;;;;1.88;0.85;;;4.40;75.70;;;;;;5036192;28;20025;-69
2021/01/24 10:50:31;;;;;;;1.17;0.70;;;4.40;74.60;;;;;;5036178;28;20433;-69
2021/01/24 10:52:57;;;;;;;1.33;0.63;;;4.50;74.60;;;;;;5036220;28;20060;-69
2021/01/24 10:55:24;;;;;;;0.70;0.60;;;4.70;70.70;;;;;;5036356;28;20061;-69
2021/01/24 10:57:50;;;;;;;0.73;0.45;;;4.80;70.90;;;;;;5036428;28;20544;-69
2021/01/24 11:00:17;;;;;;;0.90;0.50;;;4.90;71.00;;;;;;5036259;28;20365;-66
2021/01/24 11:02:43;;;;;;;0.82;0.50;;;5.00;70.80;;;;;;5035805;28;20060;-68
2021/01/24 11:05:10;;;;;;;0.60;0.40;;;5.00;67.60;;;;;;5035966;28;20442;-68
2021/01/24 11:07:36;;;;;;;0.82;0.38;;;5.20;66.50;;;;;;5036052;28;20030;-69
2021/01/24 11:10:04;;;;;;;0.75;0.35;;;5.20;67.80;;;;;;5036088;28;20021;-69
2021/01/24 11:12:30;;;;;;;0.98;0.52;;;5.30;69.40;;;;;;5036735;28;20414;-69
2021/01/24 11:14:57;;;;;;;0.75;0.40;;;5.40;72.40;;;;;;5039387;28;20028;-69
2021/01/24 11:17:23;;;;;;;0.68;0.52;;;5.50;71.60;;;;;;5039936;28;20084;-69
2021/01/24 11:19:51;;;;;;;0.80;0.50;;;5.50;76.00;;;;;;5039420;28;20025;-69
2021/01/24 11:22:18;;;;;;;1.85;0.70;;;5.60;72.10;;;;;;5039446;28;20032;-69
2021/01/24 11:24:46;;;;;;;0.95;0.63;;;5.60;72.50;;;;;;5039441;28;20033;-69
2021/01/24 11:27:12;;;;;;;1.95;0.80;;;5.50;76.80;;;;;;5039749;28;20029;-69
2021/01/24 11:29:39;;;;;;;1.65;0.73;;;5.50;79.10;;;;;;5039085;28;20041;-69
2021/01/24 11:32:06;;;;;;;3.10;2.03;;;5.50;76.50;;;;;;5039509;28;20033;-69
2021/01/24 11:34:32;;;;;;;5.63;1.70;;;5.50;73.50;;;;;;5038049;28;20029;-69
2021/01/24 11:36:57;;;;;;;1.88;1.20;;;5.60;75.70;;;;;;5039297;28;20032;-69
2021/01/24 11:39:23;;;;;;;2.90;1.20;;;5.60;78.90;;;;;;5039035;28;20018;-69
2021/01/24 11:41:49;;;;;;;1.52;0.98;;;5.70;76.30;;;;;;5039259;28;20082;-69
2021/01/24 11:44:15;;;;;;;1.27;0.90;;;5.80;78.10;;;;;;5039023;28;20029;-69
2021/01/24 11:46:41;;;;;;;3.20;1.60;;;5.90;75.10;;;;;;5038907;28;20021;-69
2021/01/24 11:49:07;;;;;;;2.33;1.50;;;6.00;75.80;;;;;;5038969;28;20021;-69
2021/01/24 11:51:33;;;;;;;1.50;1.00;;;6.10;73.00;;;;;;5038797;28;20306;-69
2021/01/24 11:53:59;;;;;;;2.10;1.27;;;6.30;74.20;;;;;;5038908;28;20441;-69
2021/01/24 11:56:24;;;;;;;2.47;1.30;;;6.50;73.10;;;;;;5038733;28;20037;-69
2021/01/24 11:58:50;;;;;;;2.42;1.17;;;6.80;71.60;;;;;;5038744;28;20031;-69
2021/01/24 12:01:16;;;;;;;3.45;1.20;;;7.10;71.20;;;;;;5038667;28;20108;-69
2021/01/24 12:03:42;;;;;;;2.65;0.85;;;8.00;69.60;;;;;;5038678;28;20028;-69
2021/01/24 12:06:07;;;;;;;1.55;0.82;;;8.70;66.00;;;;;;5038589;28;20373;-69
2021/01/24 12:08:33;;;;;;;1.40;1.00;;;8.70;66.20;;;;;;5038527;28;20097;-69
2021/01/24 12:10:59;;;;;;;1.48;1.00;;;9.10;65.20;;;;;;5038536;28;20452;-67
2021/01/24 12:13:25;;;;;;;1.10;0.82;;;9.50;64.00;;;;;;5038474;28;20309;-67
2021/01/24 12:15:51;;;;;;;1.60;1.20;;;10.10;63.40;;;;;;5038342;28;20025;-68
2021/01/24 12:18:17;;;;;;;2.28;1.65;;;10.80;58.70;;;;;;5038488;28;20444;-68
2021/01/24 12:20:43;;;;;;;2.67;1.58;;;11.10;60.80;;;;;;5038442;28;20034;-68
2021/01/24 12:23:08;;;;;;;2.45;1.38;;;10.60;60.60;;;;;;5038191;28;20056;-68
2021/01/24 12:25:34;;;;;;;2.05;1.50;;;10.10;63.30;;;;;;5037783;28;20039;-69
2021/01/24 12:28:00;;;;;;;2.10;1.55;;;9.60;65.50;;;;;;5037996;28;20551;-69
2021/01/24 12:30:26;;;;;;;3.13;1.60;;;9.00;64.50;;;;;;5038276;28;20056;-69
2021/01/24 12:32:51;;;;;;;2.55;1.70;;;8.30;67.60;;;;;;5038077;28;20021;-69
2021/01/24 12:35:18;;;;;;;2.70;1.17;;;7.70;70.00;;;;;;5038143;28;20025;-69
2021/01/24 12:37:45;;;;;;;1.75;1.00;;;7.60;69.00;;;;;;5038011;28;20100;-69
2021/01/24 12:40:11;;;;;;;3.35;1.27;;;7.40;68.70;;;;;;5037892;28;20021;-69
2021/01/24 12:42:37;;;;;;;2.55;1.45;;;7.00;71.80;;;;;;5038140;28;20029;-69
2021/01/24 12:45:04;;;;;;;2.08;1.30;;;6.80;74.20;;;;;;5037692;28;20330;-69
2021/01/24 12:47:30;;;;;;;1.63;1.05;;;6.60;70.90;;;;;;5038374;28;20024;-69
2021/01/24 12:49:55;;;;;;;1.58;1.10;;;6.60;74.70;;;;;;5037748;28;20022;-69
2021/01/24 12:52:21;;;;;;;3.35;1.40;;;6.50;73.40;;;;;;5037700;28;20029;-69
2021/01/24 12:54:48;;;;;;;2.47;1.63;;;6.50;71.60;;;;;;5037684;28;20035;-69
2021/01/24 12:57:13;;;;;;;2.53;1.70;;;6.40;74.80;;;;;;5037819;28;20044;-69
2021/01/24 12:59:42;;;;;;;2.67;1.70;;;6.30;72.30;;;;;;5037547;28;20033;-69
2021/01/24 13:02:08;;;;;;;2.83;1.50;;;6.30;73.00;;;;;;5037805;28;20365;-68